CFG67H EDDN-LFMN
Flight info
| Callsign | CFG67H |
|---|---|
| Flight time | 1h 18m |
| Altitude | 33000 |
| Route | BOLSI1G BOLSI Y166 DKB N869 NATOR/N0461F350 DCT LUTIX N869 BENOT DCT NEMOS DCT GEVEA DCT KOGAS DCT MEDAM/N0468F290 DCT VEVAR |
| Aircraft | A320/M-SDE3FGHIRWY/LB1 |
Departure
| Time | 2026-05-06 18:23 |
|---|---|
| Airport | Nuremberg Airport (EDDN) |
Arrival
| Time | 2026-05-06 19:41 |
|---|---|
| Airport | Nice-Côte d'Azur Airport (LFMN) |
| Time | Latitude | Longitude | Altitude | Speed | Heading |
|---|---|---|---|---|---|
| 2026-05-06 17:57 | 49.49528 | 11.07660 | 1026 ft | 0 kts | 188° |
| 2026-05-06 18:13 | 49.49530 | 11.07660 | 1023 ft | 1 kts | 188° |
| 2026-05-06 18:13 | 49.49547 | 11.07663 | 1026 ft | 3 kts | 181° |
| 2026-05-06 18:13 | 49.49567 | 11.07662 | 1024 ft | 3 kts | 168° |
| 2026-05-06 18:14 | 49.49586 | 11.07653 | 1026 ft | 3 kts | 146° |
| 2026-05-06 18:14 | 49.49599 | 11.07634 | 1025 ft | 2 kts | 108° |
| 2026-05-06 18:14 | 49.49601 | 11.07625 | 1026 ft | 0 kts | 98° |
| 2026-05-06 18:17 | 49.49599 | 11.07636 | 1025 ft | 5 kts | 98° |
| 2026-05-06 18:17 | 49.49589 | 11.07747 | 1025 ft | 13 kts | 98° |
| 2026-05-06 18:17 | 49.49577 | 11.07860 | 1027 ft | 8 kts | 99° |
| 2026-05-06 18:18 | 49.49572 | 11.07907 | 1026 ft | 7 kts | 99° |
| 2026-05-06 18:18 | 49.49561 | 11.08020 | 1027 ft | 13 kts | 98° |
| 2026-05-06 18:18 | 49.49549 | 11.08149 | 1025 ft | 11 kts | 98° |
| 2026-05-06 18:18 | 49.49539 | 11.08256 | 1027 ft | 11 kts | 98° |
| 2026-05-06 18:19 | 49.49560 | 11.08346 | 1031 ft | 9 kts | 32° |
| 2026-05-06 18:19 | 49.49613 | 11.08406 | 1034 ft | 12 kts | 74° |
| 2026-05-06 18:19 | 49.49606 | 11.08567 | 1036 ft | 16 kts | 97° |
| 2026-05-06 18:19 | 49.49590 | 11.08717 | 1037 ft | 13 kts | 100° |
| 2026-05-06 18:20 | 49.49575 | 11.08869 | 1038 ft | 14 kts | 98° |
| 2026-05-06 18:20 | 49.49562 | 11.09003 | 1039 ft | 12 kts | 99° |
| 2026-05-06 18:20 | 49.49544 | 11.09154 | 1042 ft | 16 kts | 97° |
| 2026-05-06 18:20 | 49.49534 | 11.09347 | 1045 ft | 18 kts | 79° |
| 2026-05-06 18:21 | 49.49586 | 11.09471 | 1049 ft | 11 kts | 53° |
| 2026-05-06 18:21 | 49.49640 | 11.09563 | 1052 ft | 14 kts | 29° |
| 2026-05-06 18:21 | 49.49703 | 11.09471 | 1051 ft | 15 kts | 277° |
| 2026-05-06 18:21 | 49.49706 | 11.09436 | 1050 ft | 0 kts | 277° |
| 2026-05-06 18:22 | 49.49716 | 11.09311 | 1048 ft | 44 kts | 277° |
| 2026-05-06 18:22 | 49.49799 | 11.08470 | 1036 ft | 111 kts | 277° |
| 2026-05-06 18:22 | 49.49916 | 11.07053 | 1103 ft | 142 kts | 276° |
| 2026-05-06 18:22 | 49.50115 | 11.05578 | 1397 ft | 155 kts | 283° |
| 2026-05-06 18:23 | 49.50370 | 11.03786 | 1625 ft | 181 kts | 278° |
| 2026-05-06 18:23 | 49.50557 | 11.01770 | 2050 ft | 200 kts | 278° |
| 2026-05-06 18:23 | 49.50746 | 10.99573 | 2423 ft | 217 kts | 277° |
| 2026-05-06 18:23 | 49.50959 | 10.97151 | 2887 ft | 240 kts | 278° |
| 2026-05-06 18:24 | 49.51189 | 10.94588 | 3623 ft | 249 kts | 276° |
| 2026-05-06 18:24 | 49.51051 | 10.91917 | 4479 ft | 256 kts | 251° |
| 2026-05-06 18:24 | 49.50316 | 10.89397 | 5369 ft | 260 kts | 245° |
| 2026-05-06 18:24 | 49.49529 | 10.86869 | 6289 ft | 264 kts | 244° |
| 2026-05-06 18:25 | 49.48730 | 10.84313 | 7121 ft | 267 kts | 244° |
| 2026-05-06 18:25 | 49.47921 | 10.81716 | 7969 ft | 271 kts | 243° |
| 2026-05-06 18:25 | 49.46851 | 10.79329 | 8806 ft | 274 kts | 229° |
| 2026-05-06 18:25 | 49.45578 | 10.77127 | 9688 ft | 276 kts | 228° |
| 2026-05-06 18:26 | 49.44272 | 10.74881 | 10233 ft | 291 kts | 228° |
| 2026-05-06 18:26 | 49.42866 | 10.72473 | 10465 ft | 315 kts | 228° |
| 2026-05-06 18:26 | 49.41348 | 10.69877 | 10645 ft | 338 kts | 228° |
| 2026-05-06 18:26 | 49.39743 | 10.67131 | 11022 ft | 351 kts | 228° |
| 2026-05-06 18:27 | 49.38100 | 10.64323 | 11650 ft | 356 kts | 228° |
| 2026-05-06 18:27 | 49.36435 | 10.61475 | 12324 ft | 360 kts | 228° |
| 2026-05-06 18:27 | 49.34756 | 10.58601 | 13027 ft | 363 kts | 228° |
| 2026-05-06 18:27 | 49.33065 | 10.55706 | 13709 ft | 366 kts | 228° |
| 2026-05-06 18:28 | 49.31356 | 10.52787 | 14335 ft | 369 kts | 228° |
| 2026-05-06 18:28 | 49.29631 | 10.49851 | 14949 ft | 372 kts | 227° |
| 2026-05-06 18:28 | 49.27893 | 10.46898 | 15575 ft | 374 kts | 227° |
| 2026-05-06 18:28 | 49.26141 | 10.43924 | 16194 ft | 377 kts | 227° |
| 2026-05-06 18:29 | 49.24378 | 10.40934 | 16803 ft | 380 kts | 227° |
| 2026-05-06 18:29 | 49.22598 | 10.37920 | 17420 ft | 383 kts | 226° |
| 2026-05-06 18:29 | 49.20830 | 10.34925 | 18033 ft | 386 kts | 226° |
| 2026-05-06 18:29 | 49.19020 | 10.31855 | 18549 ft | 389 kts | 226° |
| 2026-05-06 18:30 | 49.17200 | 10.28773 | 19059 ft | 392 kts | 226° |
| 2026-05-06 18:30 | 49.15366 | 10.25678 | 19561 ft | 394 kts | 226° |
| 2026-05-06 18:30 | 49.13529 | 10.22546 | 20042 ft | 397 kts | 227° |
| 2026-05-06 18:30 | 49.11740 | 10.19299 | 20533 ft | 401 kts | 229° |
| 2026-05-06 18:31 | 49.09979 | 10.15952 | 20921 ft | 406 kts | 230° |
| 2026-05-06 18:31 | 49.08230 | 10.12550 | 21347 ft | 409 kts | 230° |
| 2026-05-06 18:31 | 49.06472 | 10.09117 | 21784 ft | 412 kts | 229° |
| 2026-05-06 18:31 | 49.04697 | 10.05680 | 22222 ft | 414 kts | 229° |
| 2026-05-06 18:32 | 49.02894 | 10.02233 | 22641 ft | 416 kts | 229° |
| 2026-05-06 18:32 | 49.01074 | 9.98791 | 23042 ft | 419 kts | 228° |
| 2026-05-06 18:32 | 48.99232 | 9.95337 | 23422 ft | 421 kts | 228° |
| 2026-05-06 18:32 | 48.97376 | 9.91868 | 23758 ft | 423 kts | 228° |
| 2026-05-06 18:33 | 48.95511 | 9.88381 | 24109 ft | 425 kts | 228° |
| 2026-05-06 18:33 | 48.93645 | 9.84890 | 24462 ft | 426 kts | 228° |
| 2026-05-06 18:33 | 48.91770 | 9.81383 | 24808 ft | 427 kts | 228° |
| 2026-05-06 18:33 | 48.89893 | 9.77874 | 25145 ft | 428 kts | 228° |
| 2026-05-06 18:34 | 48.88040 | 9.74406 | 25501 ft | 428 kts | 228° |
| 2026-05-06 18:34 | 48.86140 | 9.70846 | 25884 ft | 428 kts | 228° |
| 2026-05-06 18:34 | 48.84285 | 9.67381 | 26210 ft | 429 kts | 228° |
| 2026-05-06 18:34 | 48.82399 | 9.63869 | 26504 ft | 431 kts | 228° |
| 2026-05-06 18:35 | 48.80492 | 9.60329 | 26687 ft | 435 kts | 228° |
| 2026-05-06 18:35 | 48.78570 | 9.56770 | 26930 ft | 437 kts | 228° |
| 2026-05-06 18:35 | 48.76646 | 9.53208 | 27193 ft | 438 kts | 228° |
| 2026-05-06 18:35 | 48.74710 | 9.49628 | 27451 ft | 439 kts | 228° |
| 2026-05-06 18:36 | 48.72771 | 9.46047 | 27724 ft | 440 kts | 228° |
| 2026-05-06 18:36 | 48.70832 | 9.42467 | 28095 ft | 438 kts | 228° |
| 2026-05-06 18:36 | 48.68907 | 9.38915 | 28498 ft | 435 kts | 228° |
| 2026-05-06 18:36 | 48.66992 | 9.35385 | 28954 ft | 431 kts | 228° |
| 2026-05-06 18:37 | 48.65097 | 9.31903 | 29358 ft | 428 kts | 228° |
| 2026-05-06 18:37 | 48.63200 | 9.28427 | 29755 ft | 426 kts | 228° |
| 2026-05-06 18:37 | 48.61331 | 9.24967 | 30110 ft | 425 kts | 229° |
| 2026-05-06 18:37 | 48.59443 | 9.21557 | 30410 ft | 422 kts | 223° |
| 2026-05-06 18:38 | 48.57341 | 9.18461 | 30697 ft | 421 kts | 222° |
| 2026-05-06 18:38 | 48.55226 | 9.15412 | 30986 ft | 420 kts | 221° |
| 2026-05-06 18:38 | 48.53100 | 9.12386 | 31272 ft | 419 kts | 221° |
| 2026-05-06 18:38 | 48.50971 | 9.09373 | 31526 ft | 421 kts | 221° |
| 2026-05-06 18:39 | 48.48825 | 9.06335 | 31658 ft | 425 kts | 221° |
| 2026-05-06 18:39 | 48.46671 | 9.03274 | 31864 ft | 426 kts | 222° |
| 2026-05-06 18:39 | 48.44514 | 9.00199 | 32141 ft | 426 kts | 222° |
| 2026-05-06 18:40 | 48.40244 | 8.94111 | 32736 ft | 424 kts | 222° |
| 2026-05-06 18:40 | 48.38072 | 8.91021 | 32868 ft | 425 kts | 222° |
| 2026-05-06 18:40 | 48.35919 | 8.87960 | 32882 ft | 427 kts | 222° |
| 2026-05-06 18:41 | 48.31597 | 8.81841 | 32884 ft | 427 kts | 221° |
| 2026-05-06 18:41 | 48.27270 | 8.75750 | 32890 ft | 426 kts | 222° |
| 2026-05-06 18:42 | 48.22986 | 8.69711 | 32894 ft | 426 kts | 222° |
| 2026-05-06 18:42 | 48.18671 | 8.63620 | 32894 ft | 426 kts | 222° |
| 2026-05-06 18:43 | 48.14355 | 8.57555 | 32902 ft | 425 kts | 222° |
| 2026-05-06 18:43 | 48.10031 | 8.51507 | 32916 ft | 426 kts | 222° |
| 2026-05-06 18:44 | 48.05685 | 8.45449 | 32902 ft | 427 kts | 222° |
| 2026-05-06 18:44 | 48.01327 | 8.39389 | 32895 ft | 428 kts | 222° |
| 2026-05-06 18:45 | 47.96965 | 8.33314 | 32902 ft | 429 kts | 222° |
| 2026-05-06 18:45 | 47.92595 | 8.27252 | 32909 ft | 429 kts | 222° |
| 2026-05-06 18:46 | 47.88238 | 8.21230 | 32928 ft | 428 kts | 222° |
| 2026-05-06 18:46 | 47.83868 | 8.15207 | 32937 ft | 427 kts | 222° |
| 2026-05-06 18:47 | 47.79507 | 8.09198 | 32940 ft | 427 kts | 221° |
| 2026-05-06 18:47 | 47.75147 | 8.03213 | 32938 ft | 427 kts | 221° |
| 2026-05-06 18:48 | 47.70786 | 7.97244 | 32937 ft | 425 kts | 221° |
| 2026-05-06 18:48 | 47.66436 | 7.91304 | 32941 ft | 424 kts | 221° |
| 2026-05-06 18:49 | 47.62085 | 7.85373 | 32942 ft | 424 kts | 221° |
| 2026-05-06 18:49 | 47.57739 | 7.79469 | 32937 ft | 424 kts | 221° |
| 2026-05-06 18:50 | 47.53400 | 7.73573 | 32932 ft | 423 kts | 221° |
| 2026-05-06 18:50 | 47.49058 | 7.67698 | 32936 ft | 422 kts | 221° |
| 2026-05-06 18:51 | 47.44719 | 7.61834 | 32936 ft | 422 kts | 221° |
| 2026-05-06 18:51 | 47.40389 | 7.56000 | 32934 ft | 421 kts | 221° |
| 2026-05-06 18:52 | 47.36052 | 7.50172 | 32934 ft | 421 kts | 221° |
| 2026-05-06 18:52 | 47.31739 | 7.44389 | 32915 ft | 423 kts | 221° |
| 2026-05-06 18:53 | 47.27372 | 7.38555 | 32899 ft | 424 kts | 221° |
| 2026-05-06 18:53 | 47.22996 | 7.32709 | 32897 ft | 425 kts | 221° |
| 2026-05-06 18:54 | 47.18608 | 7.26858 | 32900 ft | 426 kts | 221° |
| 2026-05-06 18:54 | 47.14202 | 7.21013 | 32906 ft | 426 kts | 221° |
| 2026-05-06 18:55 | 47.09802 | 7.15167 | 32917 ft | 427 kts | 221° |
| 2026-05-06 18:55 | 47.05390 | 7.09328 | 32915 ft | 427 kts | 221° |
| 2026-05-06 18:56 | 47.00968 | 7.03510 | 32917 ft | 427 kts | 221° |
| 2026-05-06 18:56 | 46.96547 | 6.97706 | 32909 ft | 427 kts | 221° |
| 2026-05-06 18:57 | 46.92119 | 6.91887 | 32904 ft | 429 kts | 221° |
| 2026-05-06 18:57 | 46.87600 | 6.86183 | 32898 ft | 430 kts | 218° |
| 2026-05-06 18:57 | 46.85096 | 6.83819 | 32899 ft | 430 kts | 205° |
| 2026-05-06 18:58 | 46.82277 | 6.82369 | 32901 ft | 431 kts | 198° |
| 2026-05-06 18:58 | 46.76530 | 6.79849 | 32890 ft | 432 kts | 198° |
| 2026-05-06 18:59 | 46.70771 | 6.77376 | 32906 ft | 431 kts | 198° |
| 2026-05-06 18:59 | 46.65015 | 6.74895 | 32918 ft | 432 kts | 198° |
| 2026-05-06 19:00 | 46.59259 | 6.72403 | 32923 ft | 432 kts | 198° |
| 2026-05-06 19:00 | 46.53500 | 6.69925 | 32935 ft | 432 kts | 198° |
| 2026-05-06 19:01 | 46.47783 | 6.67464 | 32940 ft | 431 kts | 198° |
| 2026-05-06 19:01 | 46.42016 | 6.64984 | 32942 ft | 431 kts | 198° |
| 2026-05-06 19:02 | 46.37191 | 6.62911 | 32936 ft | 431 kts | 198° |
| 2026-05-06 19:02 | 46.31470 | 6.60470 | 32943 ft | 431 kts | 198° |
| 2026-05-06 19:03 | 46.25716 | 6.58044 | 32943 ft | 431 kts | 198° |
| 2026-05-06 19:03 | 46.19966 | 6.55598 | 32948 ft | 431 kts | 198° |
| 2026-05-06 19:04 | 46.14218 | 6.53140 | 32943 ft | 431 kts | 198° |
| 2026-05-06 19:04 | 46.08431 | 6.50684 | 32946 ft | 430 kts | 198° |
| 2026-05-06 19:05 | 46.02720 | 6.48277 | 32948 ft | 430 kts | 198° |
| 2026-05-06 19:05 | 45.96973 | 6.45860 | 32938 ft | 430 kts | 198° |
| 2026-05-06 19:06 | 45.91240 | 6.43450 | 32955 ft | 429 kts | 198° |
| 2026-05-06 19:06 | 45.85466 | 6.41321 | 32958 ft | 431 kts | 189° |
| 2026-05-06 19:06 | 45.82462 | 6.41220 | 32954 ft | 434 kts | 178° |
| 2026-05-06 19:07 | 45.79471 | 6.41988 | 32958 ft | 440 kts | 167° |
| 2026-05-06 19:07 | 45.76612 | 6.43622 | 32950 ft | 447 kts | 156° |
| 2026-05-06 19:07 | 45.73979 | 6.46052 | 32948 ft | 452 kts | 149° |
| 2026-05-06 19:08 | 45.68867 | 6.51277 | 32938 ft | 451 kts | 149° |
| 2026-05-06 19:08 | 45.63730 | 6.56492 | 32950 ft | 453 kts | 149° |
| 2026-05-06 19:09 | 45.58612 | 6.61673 | 32953 ft | 453 kts | 149° |
| 2026-05-06 19:09 | 45.53476 | 6.66867 | 32942 ft | 451 kts | 151° |
| 2026-05-06 19:10 | 45.48366 | 6.72036 | 32952 ft | 450 kts | 151° |
| 2026-05-06 19:10 | 45.43254 | 6.77177 | 32951 ft | 449 kts | 151° |
| 2026-05-06 19:11 | 45.38153 | 6.82292 | 32953 ft | 449 kts | 151° |
| 2026-05-06 19:11 | 45.33042 | 6.87406 | 32912 ft | 449 kts | 151° |
| 2026-05-06 19:12 | 45.27824 | 6.92192 | 32917 ft | 441 kts | 161° |
| 2026-05-06 19:12 | 45.22082 | 6.94688 | 32863 ft | 426 kts | 178° |
| 2026-05-06 19:13 | 45.16225 | 6.95607 | 32565 ft | 423 kts | 179° |
| 2026-05-06 19:13 | 45.13286 | 6.96070 | 31552 ft | 424 kts | 179° |
| 2026-05-06 19:13 | 45.10350 | 6.96532 | 30526 ft | 425 kts | 180° |
| 2026-05-06 19:13 | 45.07413 | 6.96992 | 29401 ft | 425 kts | 180° |
| 2026-05-06 19:14 | 45.04468 | 6.97447 | 28103 ft | 428 kts | 179° |
| 2026-05-06 19:14 | 45.01490 | 6.97908 | 26731 ft | 433 kts | 179° |
| 2026-05-06 19:14 | 44.98470 | 6.98374 | 25380 ft | 440 kts | 178° |
| 2026-05-06 19:14 | 44.95421 | 6.98848 | 24257 ft | 441 kts | 178° |
| 2026-05-06 19:15 | 44.92379 | 6.99326 | 23301 ft | 439 kts | 178° |
| 2026-05-06 19:15 | 44.89350 | 6.99801 | 22346 ft | 438 kts | 177° |
| 2026-05-06 19:15 | 44.86314 | 7.00274 | 22018 ft | 438 kts | 177° |
| 2026-05-06 19:15 | 44.83280 | 7.00748 | 21822 ft | 438 kts | 177° |
| 2026-05-06 19:16 | 44.80245 | 7.01218 | 21876 ft | 439 kts | 177° |
| 2026-05-06 19:16 | 44.77231 | 7.01765 | 21881 ft | 447 kts | 176° |
| 2026-05-06 19:16 | 44.74130 | 7.02449 | 21878 ft | 456 kts | 174° |
| 2026-05-06 19:16 | 44.70992 | 7.03227 | 21870 ft | 460 kts | 173° |
| 2026-05-06 19:17 | 44.67832 | 7.04050 | 21881 ft | 463 kts | 173° |
| 2026-05-06 19:17 | 44.64691 | 7.04871 | 21309 ft | 455 kts | 173° |
| 2026-05-06 19:17 | 44.61578 | 7.05664 | 20384 ft | 453 kts | 173° |
| 2026-05-06 19:17 | 44.58466 | 7.06422 | 20055 ft | 453 kts | 174° |
| 2026-05-06 19:18 | 44.55353 | 7.07157 | 19857 ft | 453 kts | 174° |
| 2026-05-06 19:18 | 44.52244 | 7.07880 | 19878 ft | 453 kts | 174° |
| 2026-05-06 19:18 | 44.49134 | 7.08601 | 19878 ft | 454 kts | 174° |
| 2026-05-06 19:18 | 44.46016 | 7.09325 | 19881 ft | 454 kts | 174° |
| 2026-05-06 19:19 | 44.42903 | 7.10053 | 19881 ft | 454 kts | 174° |
| 2026-05-06 19:19 | 44.39780 | 7.10788 | 19880 ft | 454 kts | 174° |
| 2026-05-06 19:19 | 44.36666 | 7.11527 | 19809 ft | 453 kts | 174° |
| 2026-05-06 19:19 | 44.33591 | 7.12262 | 18896 ft | 448 kts | 173° |
| 2026-05-06 19:20 | 44.30504 | 7.12998 | 17798 ft | 450 kts | 173° |
| 2026-05-06 19:20 | 44.27428 | 7.13726 | 16864 ft | 445 kts | 173° |
| 2026-05-06 19:20 | 44.24390 | 7.14441 | 16068 ft | 440 kts | 173° |
| 2026-05-06 19:20 | 44.21418 | 7.15331 | 15273 ft | 436 kts | 166° |
| 2026-05-06 19:21 | 44.18588 | 7.16784 | 14415 ft | 429 kts | 160° |
| 2026-05-06 19:21 | 44.15848 | 7.18385 | 14029 ft | 427 kts | 160° |
| 2026-05-06 19:21 | 44.13175 | 7.19957 | 13845 ft | 417 kts | 160° |
| 2026-05-06 19:21 | 44.10523 | 7.21523 | 13871 ft | 413 kts | 160° |
| 2026-05-06 19:22 | 44.07881 | 7.23082 | 13875 ft | 412 kts | 160° |
| 2026-05-06 19:22 | 44.05258 | 7.24623 | 13868 ft | 404 kts | 160° |
| 2026-05-06 19:22 | 44.02681 | 7.26130 | 13870 ft | 401 kts | 160° |
| 2026-05-06 19:22 | 44.00119 | 7.27625 | 13870 ft | 399 kts | 160° |
| 2026-05-06 19:23 | 43.97559 | 7.29118 | 13868 ft | 399 kts | 160° |
| 2026-05-06 19:23 | 43.94997 | 7.30609 | 13864 ft | 399 kts | 160° |
| 2026-05-06 19:23 | 43.92440 | 7.32095 | 13862 ft | 399 kts | 160° |
| 2026-05-06 19:23 | 43.89880 | 7.33582 | 13866 ft | 399 kts | 160° |
| 2026-05-06 19:24 | 43.87318 | 7.35070 | 13865 ft | 399 kts | 160° |
| 2026-05-06 19:24 | 43.84770 | 7.36582 | 13864 ft | 399 kts | 157° |
| 2026-05-06 19:24 | 43.82359 | 7.38506 | 13865 ft | 402 kts | 148° |
| 2026-05-06 19:24 | 43.80144 | 7.40896 | 13866 ft | 404 kts | 143° |
| 2026-05-06 19:25 | 43.77963 | 7.43356 | 13860 ft | 404 kts | 143° |
| 2026-05-06 19:25 | 43.75779 | 7.45803 | 13864 ft | 404 kts | 143° |
| 2026-05-06 19:25 | 43.73594 | 7.48238 | 13865 ft | 404 kts | 144° |
| 2026-05-06 19:25 | 43.71430 | 7.50652 | 13865 ft | 404 kts | 143° |
| 2026-05-06 19:26 | 43.69410 | 7.53370 | 13868 ft | 407 kts | 133° |
| 2026-05-06 19:26 | 43.67751 | 7.56539 | 13866 ft | 409 kts | 123° |
| 2026-05-06 19:26 | 43.66509 | 7.60084 | 13843 ft | 411 kts | 112° |
| 2026-05-06 19:26 | 43.65558 | 7.63775 | 13318 ft | 406 kts | 111° |
| 2026-05-06 19:27 | 43.64627 | 7.67434 | 12640 ft | 403 kts | 111° |
| 2026-05-06 19:27 | 43.63700 | 7.71069 | 11971 ft | 400 kts | 111° |
| 2026-05-06 19:27 | 43.62775 | 7.74672 | 11305 ft | 396 kts | 111° |
| 2026-05-06 19:27 | 43.61863 | 7.78203 | 10653 ft | 393 kts | 111° |
| 2026-05-06 19:28 | 43.60960 | 7.81692 | 10459 ft | 377 kts | 111° |
| 2026-05-06 19:28 | 43.60088 | 7.85067 | 10332 ft | 361 kts | 111° |
| 2026-05-06 19:28 | 43.59269 | 7.88217 | 10217 ft | 346 kts | 111° |
| 2026-05-06 19:28 | 43.58469 | 7.91284 | 10081 ft | 333 kts | 111° |
| 2026-05-06 19:29 | 43.57693 | 7.94269 | 9735 ft | 329 kts | 112° |
| 2026-05-06 19:29 | 43.56728 | 7.97076 | 9304 ft | 321 kts | 130° |
| 2026-05-06 19:29 | 43.55122 | 7.99101 | 8869 ft | 309 kts | 154° |
| 2026-05-06 19:29 | 43.53184 | 8.00287 | 8410 ft | 304 kts | 162° |
| 2026-05-06 19:30 | 43.51208 | 8.01307 | 7967 ft | 302 kts | 163° |
| 2026-05-06 19:30 | 43.49230 | 8.02204 | 7538 ft | 294 kts | 175° |
| 2026-05-06 19:30 | 43.47254 | 8.02095 | 7136 ft | 279 kts | 201° |
| 2026-05-06 19:30 | 43.45535 | 8.00945 | 6659 ft | 274 kts | 218° |
| 2026-05-06 19:31 | 43.44298 | 7.99007 | 6190 ft | 271 kts | 244° |
| 2026-05-06 19:31 | 43.43751 | 7.96540 | 5901 ft | 271 kts | 258° |
| 2026-05-06 19:31 | 43.44196 | 7.91362 | 5890 ft | 280 kts | 291° |
| 2026-05-06 19:32 | 43.45030 | 7.88951 | 5892 ft | 279 kts | 292° |
| 2026-05-06 19:32 | 43.45863 | 7.86597 | 5877 ft | 265 kts | 292° |
| 2026-05-06 19:32 | 43.46655 | 7.84285 | 5893 ft | 268 kts | 290° |
| 2026-05-06 19:32 | 43.47617 | 7.82158 | 5888 ft | 261 kts | 304° |
| 2026-05-06 19:33 | 43.48785 | 7.80237 | 5880 ft | 262 kts | 306° |
| 2026-05-06 19:33 | 43.49965 | 7.78304 | 5878 ft | 265 kts | 307° |
| 2026-05-06 19:33 | 43.51139 | 7.76335 | 5889 ft | 266 kts | 306° |
| 2026-05-06 19:33 | 43.52315 | 7.74382 | 5871 ft | 264 kts | 307° |
| 2026-05-06 19:34 | 43.53480 | 7.72440 | 5534 ft | 262 kts | 306° |
| 2026-05-06 19:34 | 43.54650 | 7.70517 | 5093 ft | 261 kts | 307° |
| 2026-05-06 19:34 | 43.55797 | 7.68599 | 5049 ft | 261 kts | 305° |
| 2026-05-06 19:34 | 43.56976 | 7.66701 | 5065 ft | 260 kts | 307° |
| 2026-05-06 19:35 | 43.58158 | 7.64809 | 5066 ft | 261 kts | 307° |
| 2026-05-06 19:35 | 43.59318 | 7.62863 | 5063 ft | 263 kts | 307° |
| 2026-05-06 19:35 | 43.60470 | 7.60890 | 5061 ft | 264 kts | 306° |
| 2026-05-06 19:35 | 43.61638 | 7.58946 | 5070 ft | 262 kts | 307° |
| 2026-05-06 19:36 | 43.62762 | 7.57016 | 5056 ft | 262 kts | 307° |
| 2026-05-06 19:36 | 43.63877 | 7.55020 | 5067 ft | 261 kts | 306° |
| 2026-05-06 19:36 | 43.64948 | 7.53093 | 5067 ft | 245 kts | 306° |
| 2026-05-06 19:36 | 43.65972 | 7.51251 | 5070 ft | 241 kts | 306° |
| 2026-05-06 19:37 | 43.66993 | 7.49420 | 5061 ft | 240 kts | 306° |
| 2026-05-06 19:37 | 43.67891 | 7.47483 | 5066 ft | 240 kts | 293° |
| 2026-05-06 19:37 | 43.68492 | 7.45337 | 4942 ft | 238 kts | 289° |
| 2026-05-06 19:37 | 43.68831 | 7.43873 | 4688 ft | 236 kts | 284° |
| 2026-05-06 19:38 | 43.69267 | 7.41024 | 4504 ft | 222 kts | 277° |
| 2026-05-06 19:38 | 43.69309 | 7.38975 | 4367 ft | 204 kts | 266° |
| 2026-05-06 19:38 | 43.69340 | 7.37076 | 4052 ft | 194 kts | 276° |
| 2026-05-06 19:38 | 43.69505 | 7.35225 | 3507 ft | 197 kts | 279° |
| 2026-05-06 19:39 | 43.69773 | 7.33355 | 2992 ft | 197 kts | 281° |
| 2026-05-06 19:39 | 43.69959 | 7.31530 | 2552 ft | 184 kts | 274° |
| 2026-05-06 19:39 | 43.69948 | 7.29798 | 1771 ft | 183 kts | 262° |
| 2026-05-06 19:39 | 43.69639 | 7.28169 | 1436 ft | 167 kts | 248° |
| 2026-05-06 19:40 | 43.69141 | 7.26803 | 1179 ft | 152 kts | 236° |
| 2026-05-06 19:40 | 43.68463 | 7.25691 | 782 ft | 153 kts | 225° |
| 2026-05-06 19:40 | 43.67742 | 7.24636 | 499 ft | 147 kts | 229° |
| 2026-05-06 19:40 | 43.67075 | 7.23604 | 243 ft | 142 kts | 225° |
| 2026-05-06 19:41 | 43.66404 | 7.22641 | 30 ft | 138 kts | 227° |
| 2026-05-06 19:41 | 43.65935 | 7.21992 | 24 ft | 52 kts | 225° |
| 2026-05-06 19:41 | 43.65698 | 7.21659 | 23 ft | 45 kts | 225° |
| 2026-05-06 19:41 | 43.65520 | 7.21406 | 25 ft | 28 kts | 230° |
| 2026-05-06 19:42 | 43.65438 | 7.21185 | 24 ft | 25 kts | 252° |
| 2026-05-06 19:42 | 43.65421 | 7.21099 | 24 ft | 1 kts | 255° |
| 2026-05-06 19:42 | 43.65416 | 7.21074 | 22 ft | 8 kts | 255° |
| 2026-05-06 19:42 | 43.65387 | 7.20934 | 22 ft | 20 kts | 253° |
| 2026-05-06 19:43 | 43.65387 | 7.20752 | 23 ft | 23 kts | 309° |
| 2026-05-06 19:43 | 43.65535 | 7.20689 | 22 ft | 19 kts | 332° |
| 2026-05-06 19:43 | 43.65535 | 7.20587 | 22 ft | 11 kts | 234° |
| 2026-05-06 19:43 | 43.65484 | 7.20505 | 22 ft | 10 kts | 227° |
| 2026-05-06 19:44 | 43.65476 | 7.20457 | 22 ft | 4 kts | 335° |
| 2026-05-06 19:44 | 43.65518 | 7.20464 | 22 ft | 15 kts | 7° |
| 2026-05-06 19:44 | 43.65615 | 7.20483 | 22 ft | 14 kts | 19° |
| 2026-05-06 19:44 | 43.65666 | 7.20523 | 22 ft | 2 kts | 39° |
| 2026-05-06 19:45 | 43.65686 | 7.20547 | 22 ft | 7 kts | 34° |
| 2026-05-06 19:45 | 43.65738 | 7.20533 | 23 ft | 9 kts | 330° |
| 2026-05-06 19:45 | 43.65780 | 7.20500 | 22 ft | 0 kts | 330° |